KGVT/GVT METAR and TAF weather

Enter ICAO airport designator
Station Type Date Time Source
KGVT METAR 2019/04/23 03:50 UTC NOAA

KGVT 230350Z AUTO 00000KT 10SM CLR 21/18 A3004 RMK AO2


Station Type Date Time Source
KGVT Decoded METAR 2019/04/23 03:50 UTC NOAA

Greenville / Majors, TX, United States (KGVT) 33-04N 096-04W
Apr 22, 2019 - 11:50 PM EDT / 2019.04.23 0350 UTC
Wind: Calm:0
Visibility: 10 mile(s):0
Sky conditions: clear
Temperature: 69 F (21 C)
Dew Point: 64 F (18 C)
Relative Humidity: 82%
Pressure (altimeter): 30.04 in. Hg (1017 hPa)
ob: KGVT 230350Z AUTO 00000KT 10SM CLR 21/18 A3004 RMK AO2
cycle: 4

Station Type Date Time Source
KGVT TAF UTC NOAA

Error!

Example: see airport list